createdAt,value
2023-03-15T00:01:38.764Z,4.90
2023-03-15T00:04:07.845Z,6.40
2023-03-15T00:06:36.586Z,3.70
2023-03-15T00:09:05.484Z,10.10
2023-03-15T00:11:34.613Z,8.10
2023-03-15T00:14:03.406Z,6.80
2023-03-15T00:16:32.909Z,8.70
2023-03-15T00:19:01.908Z,8.30
2023-03-15T00:21:30.600Z,6.40
2023-03-15T00:23:59.311Z,7.20
2023-03-15T00:26:33.780Z,5.50
2023-03-15T00:29:02.600Z,5.50
2023-03-15T00:31:31.516Z,6.60
2023-03-15T00:34:00.523Z,11.80
2023-03-15T00:36:29.544Z,6.20
2023-03-15T00:38:58.308Z,5.00
2023-03-15T00:41:27.012Z,4.00
2023-03-15T00:43:55.739Z,5.60
2023-03-15T00:46:24.565Z,6.10
2023-03-15T00:48:53.251Z,11.20
2023-03-15T00:51:24.128Z,16.00
2023-03-15T00:53:53.584Z,11.00
2023-03-15T00:56:25.566Z,7.50
2023-03-15T00:58:54.352Z,6.50
2023-03-15T01:01:25.655Z,6.20
2023-03-15T01:03:54.851Z,4.90
2023-03-15T01:06:26.848Z,4.70
2023-03-15T01:08:57.110Z,7.40
2023-03-15T01:11:28.070Z,7.40
2023-03-15T01:13:58.944Z,8.90
2023-03-15T01:16:28.690Z,8.00
2023-03-15T01:18:57.574Z,8.60
2023-03-15T01:21:26.763Z,6.90
2023-03-15T01:23:55.708Z,6.60
2023-03-15T01:26:24.477Z,6.70
2023-03-15T01:28:53.249Z,9.80
2023-03-15T01:31:28.009Z,10.80
2023-03-15T01:33:57.702Z,11.30
2023-03-15T01:36:26.552Z,11.30
2023-03-15T01:38:55.529Z,9.30
2023-03-15T01:41:25.940Z,14.50
2023-03-15T01:43:54.754Z,11.40
2023-03-15T01:46:34.481Z,3.60
2023-03-15T01:49:17.412Z,7.80
2023-03-15T01:51:51.695Z,4.70
2023-03-15T01:54:33.319Z,4.90
2023-03-15T01:57:06.534Z,4.70
2023-03-15T01:59:40.743Z,4.20
2023-03-15T02:02:09.929Z,7.10
2023-03-15T02:04:46.521Z,7.60
2023-03-15T02:07:18.017Z,8.60
2023-03-15T02:10:12.615Z,6.20
2023-03-15T02:12:48.771Z,7.30
2023-03-15T02:15:17.805Z,6.70
2023-03-15T02:17:48.289Z,6.90
2023-03-15T02:20:27.579Z,6.50
2023-03-15T02:23:05.520Z,9.20
2023-03-15T02:25:43.043Z,4.40
2023-03-15T02:28:15.005Z,8.00
2023-03-15T02:30:45.222Z,9.50
2023-03-15T02:33:27.585Z,9.80
2023-03-15T02:36:06.475Z,5.10
2023-03-15T02:38:35.349Z,7.10
2023-03-15T02:41:04.900Z,6.90
2023-03-15T02:43:35.560Z,9.30
2023-03-15T02:46:05.539Z,10.70
2023-03-15T02:48:36.079Z,9.20
2023-03-15T02:51:04.947Z,4.30
2023-03-15T02:53:34.201Z,9.90
2023-03-15T02:56:03.607Z,11.40
2023-03-15T02:58:32.324Z,6.90
2023-03-15T03:01:01.078Z,7.30
2023-03-15T03:03:29.795Z,6.40
2023-03-15T03:05:58.446Z,7.90
2023-03-15T03:08:27.124Z,4.30
2023-03-15T03:10:55.796Z,11.00
2023-03-15T03:13:24.462Z,9.90
2023-03-15T03:15:58.751Z,8.20
2023-03-15T03:18:29.236Z,7.10
2023-03-15T03:20:59.416Z,8.30
2023-03-15T03:23:28.396Z,7.20
2023-03-15T03:25:58.212Z,7.90
2023-03-15T03:28:29.343Z,8.90
2023-03-15T03:30:59.321Z,3.80
2023-03-15T03:33:28.077Z,7.50
2023-03-15T03:36:02.469Z,9.30
2023-03-15T03:38:31.359Z,10.10
2023-03-15T03:41:00.032Z,9.20
2023-03-15T03:43:28.715Z,9.30
2023-03-15T03:45:57.456Z,9.20
2023-03-15T03:48:26.367Z,10.40
2023-03-15T03:50:55.128Z,15.10
2023-03-15T03:53:23.999Z,13.90
2023-03-15T03:55:54.524Z,7.60
2023-03-15T03:58:23.596Z,10.30
2023-03-15T04:00:55.515Z,6.30
2023-03-15T04:03:27.366Z,6.10
2023-03-15T04:05:58.501Z,9.10
2023-03-15T04:08:27.552Z,5.10
2023-03-15T04:10:57.826Z,5.40
2023-03-15T04:13:26.622Z,6.70
2023-03-15T04:15:58.717Z,5.90
2023-03-15T04:18:28.557Z,7.50
2023-03-15T04:20:57.277Z,9.40
2023-03-15T04:23:25.936Z,5.50
2023-03-15T04:25:58.210Z,7.00
2023-03-15T04:28:26.999Z,10.60
2023-03-15T04:30:58.870Z,5.70
2023-03-15T04:33:28.975Z,4.30
2023-03-15T04:35:57.985Z,5.00
2023-03-15T04:38:27.189Z,7.50
2023-03-15T04:40:55.896Z,6.10
2023-03-15T04:43:24.607Z,6.60
2023-03-15T04:45:53.338Z,5.40
2023-03-15T04:48:21.999Z,5.70
2023-03-15T04:50:50.757Z,5.90
2023-03-15T04:53:19.467Z,4.60
2023-03-15T04:55:48.328Z,12.50
2023-03-15T04:58:17.398Z,6.80
2023-03-15T05:00:46.287Z,6.30
2023-03-15T05:03:14.959Z,7.90
2023-03-15T05:05:45.452Z,7.90
2023-03-15T05:08:14.439Z,5.20
2023-03-15T05:10:43.358Z,7.10
2023-03-15T05:13:12.093Z,7.80
2023-03-15T05:15:41.454Z,9.60
2023-03-15T05:18:10.175Z,6.90
2023-03-15T05:20:38.840Z,9.00
2023-03-15T05:23:08.113Z,6.20
2023-03-15T05:25:38.359Z,4.90
2023-03-15T05:28:07.692Z,4.10
2023-03-15T05:30:36.396Z,8.40
2023-03-15T05:33:05.180Z,9.20
2023-03-15T05:35:33.965Z,3.70
2023-03-15T05:38:03.645Z,6.60
2023-03-15T05:40:33.364Z,5.10
2023-03-15T05:43:02.185Z,4.30
2023-03-15T05:45:30.902Z,4.50
2023-03-15T05:47:59.717Z,6.20
2023-03-15T05:50:28.972Z,7.80
2023-03-15T05:52:57.694Z,2.90
2023-03-15T05:55:26.438Z,6.00
2023-03-15T05:57:55.144Z,7.90
2023-03-15T06:00:23.914Z,10.10
2023-03-15T06:03:02.891Z,4.30
2023-03-15T06:05:37.459Z,8.20
2023-03-15T06:08:06.682Z,7.30
2023-03-15T06:10:38.506Z,9.60
2023-03-15T06:13:07.339Z,3.50
2023-03-15T06:15:36.025Z,10.90
2023-03-15T06:18:04.940Z,5.00
2023-03-15T06:20:34.011Z,7.90
2023-03-15T06:23:02.684Z,4.70
2023-03-15T06:25:31.369Z,5.10
2023-03-15T06:28:00.666Z,5.20
2023-03-15T06:30:29.469Z,6.80
2023-03-15T06:32:58.216Z,9.20
2023-03-15T06:35:27.153Z,7.00
2023-03-15T06:37:55.960Z,6.00
2023-03-15T06:40:24.700Z,5.00
2023-03-15T06:42:54.577Z,5.00
2023-03-15T06:45:23.501Z,4.10
2023-03-15T06:47:52.248Z,7.70
2023-03-15T06:50:20.948Z,6.60
2023-03-15T06:52:49.716Z,8.10
2023-03-15T06:55:18.514Z,8.50
2023-03-15T06:57:47.249Z,7.50
2023-03-15T07:00:17.246Z,6.20
2023-03-15T07:02:46.027Z,7.20
2023-03-15T07:05:16.114Z,4.90
2023-03-15T07:07:44.890Z,6.30
2023-03-15T07:10:13.786Z,3.30
2023-03-15T07:12:43.006Z,8.70
2023-03-15T07:15:12.080Z,5.60
2023-03-15T07:17:41.287Z,8.20
2023-03-15T07:20:11.011Z,7.30
2023-03-15T07:22:40.184Z,10.50
2023-03-15T07:25:09.709Z,6.90
2023-03-15T07:27:38.417Z,8.00
2023-03-15T07:30:09.637Z,8.60
2023-03-15T07:32:39.056Z,4.80
2023-03-15T07:35:08.201Z,5.00
2023-03-15T07:37:37.515Z,9.60
2023-03-15T07:40:10.829Z,5.10
2023-03-15T07:42:40.541Z,5.70
2023-03-15T07:45:10.238Z,4.00
2023-03-15T07:47:38.994Z,5.70
2023-03-15T07:50:08.431Z,3.70
2023-03-15T07:52:37.188Z,4.20
2023-03-15T07:55:08.788Z,4.30
2023-03-15T07:57:37.510Z,4.10
2023-03-15T08:00:07.069Z,3.00
2023-03-15T08:02:35.787Z,3.90
2023-03-15T08:05:04.815Z,6.20
2023-03-15T08:07:33.522Z,3.00
2023-03-15T08:10:05.556Z,4.90
2023-03-15T08:12:35.302Z,5.40
2023-03-15T08:15:04.446Z,4.90
2023-03-15T08:18:01.699Z,7.60
2023-03-15T08:20:30.519Z,1.80
2023-03-15T08:22:59.755Z,6.50
2023-03-15T08:25:28.938Z,5.00
2023-03-15T08:27:57.739Z,6.60
2023-03-15T08:30:29.687Z,5.00
2023-03-15T08:32:58.552Z,6.90
2023-03-15T08:35:27.709Z,4.30
2023-03-15T08:37:56.655Z,5.50
2023-03-15T08:40:25.493Z,6.70
2023-03-15T08:42:57.731Z,2.60
2023-03-15T08:45:27.104Z,6.80
2023-03-15T08:47:58.000Z,7.10
2023-03-15T08:50:28.351Z,3.70
2023-03-15T08:52:57.774Z,7.50
2023-03-15T08:55:26.512Z,3.50
2023-03-15T08:57:55.245Z,6.00
2023-03-15T09:00:24.591Z,3.10
2023-03-15T09:02:53.732Z,5.70
2023-03-15T09:05:25.407Z,7.50
2023-03-15T09:07:54.168Z,4.30
2023-03-15T09:10:23.027Z,6.00
2023-03-15T09:12:54.063Z,4.10
2023-03-15T09:15:23.394Z,5.40
2023-03-15T09:17:52.920Z,5.70
2023-03-15T09:20:23.200Z,4.40
2023-03-15T09:22:54.110Z,4.50
2023-03-15T09:25:24.214Z,4.00
2023-03-15T09:27:53.449Z,4.90
2023-03-15T09:30:22.355Z,7.10
2023-03-15T09:32:51.428Z,9.60
2023-03-15T09:35:20.910Z,3.40
2023-03-15T09:37:51.088Z,7.30
2023-03-15T09:40:22.241Z,5.70
2023-03-15T09:43:06.179Z,5.10
2023-03-15T09:45:50.308Z,3.70
2023-03-15T09:48:52.777Z,5.80
2023-03-15T09:51:35.708Z,3.50
2023-03-15T09:54:10.788Z,4.10
2023-03-15T09:56:45.934Z,5.40
2023-03-15T09:59:17.763Z,3.80
2023-03-15T10:01:48.226Z,4.30
2023-03-15T10:04:26.103Z,2.30
2023-03-15T10:07:01.017Z,3.50
2023-03-15T10:09:33.236Z,3.60
2023-03-15T10:12:09.302Z,5.50
2023-03-15T10:14:56.936Z,16.10
2023-03-15T10:18:04.427Z,13.90
2023-03-15T10:20:43.099Z,4.80
2023-03-15T10:23:19.299Z,4.20
2023-03-15T10:25:51.207Z,5.50
2023-03-15T10:28:27.695Z,6.00
2023-03-15T10:31:00.671Z,4.00
2023-03-15T10:33:35.661Z,5.00
2023-03-15T10:36:24.102Z,3.20
2023-03-15T10:38:52.876Z,5.00
2023-03-15T10:41:39.270Z,5.60
2023-03-15T10:44:15.077Z,1.60
2023-03-15T10:47:22.065Z,3.30
2023-03-15T10:49:59.597Z,1.80
2023-03-15T10:52:36.966Z,2.70
2023-03-15T10:55:15.897Z,4.50
2023-03-15T10:57:57.352Z,6.20
2023-03-15T11:00:34.413Z,3.70
2023-03-15T11:03:08.152Z,3.60
2023-03-15T11:05:47.068Z,4.00
2023-03-15T11:08:22.226Z,1.60
2023-03-15T11:10:59.190Z,2.60
2023-03-15T11:13:33.797Z,3.40
2023-03-15T11:16:04.835Z,4.90
2023-03-15T11:18:33.653Z,4.20
2023-03-15T11:21:06.868Z,2.90
2023-03-15T11:23:39.871Z,3.10
2023-03-15T11:26:29.359Z,2.40
2023-03-15T11:29:31.702Z,2.10
2023-03-15T11:32:02.418Z,2.00
2023-03-15T11:34:40.931Z,3.40
2023-03-15T11:37:15.557Z,2.80
2023-03-15T11:39:53.762Z,6.10
2023-03-15T11:42:31.025Z,4.90
2023-03-15T11:45:09.439Z,2.70
2023-03-15T11:47:46.620Z,6.40
2023-03-15T11:50:16.211Z,3.80
2023-03-15T11:52:50.094Z,2.50
2023-03-15T11:55:27.838Z,5.80
2023-03-15T11:57:58.545Z,4.50
2023-03-15T12:00:36.434Z,3.00
2023-03-15T12:03:28.996Z,4.20
2023-03-15T12:06:04.331Z,3.80
2023-03-15T12:08:35.968Z,3.60
2023-03-15T12:11:20.121Z,3.70
2023-03-15T12:13:58.107Z,4.40
2023-03-15T12:16:30.230Z,1.80
2023-03-15T12:19:01.379Z,4.20
2023-03-15T12:21:52.312Z,4.00
2023-03-15T12:24:28.640Z,3.50
2023-03-15T12:27:06.756Z,3.80
2023-03-15T12:29:36.274Z,3.40
2023-03-15T12:32:13.712Z,3.90
2023-03-15T12:34:52.569Z,6.20
2023-03-15T12:37:38.104Z,5.60
2023-03-15T12:40:15.847Z,2.60
2023-03-15T12:42:44.566Z,2.80
2023-03-15T12:45:16.624Z,2.80
2023-03-15T12:47:54.132Z,3.10
2023-03-15T12:50:44.279Z,1.40
2023-03-15T12:53:31.622Z,3.90
2023-03-15T12:56:19.506Z,3.10
2023-03-15T12:58:54.132Z,3.20
2023-03-15T13:01:25.788Z,4.60
2023-03-15T13:03:58.265Z,4.10
2023-03-15T13:06:45.941Z,5.00
2023-03-15T13:09:37.729Z,3.80
2023-03-15T13:12:20.400Z,3.30
2023-03-15T13:15:03.644Z,3.90
2023-03-15T13:17:50.605Z,1.60
2023-03-15T13:21:01.198Z,2.90
2023-03-15T13:23:31.918Z,1.40
2023-03-15T13:26:19.156Z,4.50
2023-03-15T13:28:58.490Z,1.90
2023-03-15T13:31:31.473Z,2.10
2023-03-15T13:34:24.573Z,1.60
2023-03-15T13:36:58.709Z,0.80
2023-03-15T13:39:35.214Z,1.60
2023-03-15T13:42:17.028Z,2.40
2023-03-15T13:44:45.740Z,3.00
2023-03-15T13:47:22.013Z,3.80
2023-03-15T13:49:53.489Z,2.20
2023-03-15T13:52:22.808Z,6.10
2023-03-15T13:54:53.689Z,5.40
2023-03-15T13:57:24.115Z,9.10
2023-03-15T14:00:02.015Z,30.20
2023-03-15T14:02:45.749Z,6.20
2023-03-15T14:05:27.226Z,14.10
2023-03-15T14:08:22.013Z,5.00
2023-03-15T14:11:30.891Z,47.30
2023-03-15T14:14:04.245Z,18.70
2023-03-15T14:16:50.654Z,11.70
2023-03-15T14:19:32.586Z,22.70
2023-03-15T14:22:05.186Z,7.30
2023-03-15T14:24:43.326Z,7.90
2023-03-15T14:27:20.958Z,3.20
2023-03-15T14:29:54.534Z,4.00
2023-03-15T14:32:25.013Z,4.20
2023-03-15T14:35:01.095Z,6.00
2023-03-15T14:37:39.781Z,5.00
2023-03-15T14:40:28.260Z,5.00
2023-03-15T14:42:56.972Z,4.80
2023-03-15T14:45:27.498Z,4.20
2023-03-15T14:48:04.121Z,5.20
2023-03-15T14:50:45.880Z,6.40
2023-03-15T14:53:17.513Z,8.30
2023-03-15T14:55:46.312Z,4.30
2023-03-15T14:58:18.168Z,10.90
2023-03-15T15:00:50.315Z,8.60
2023-03-15T15:03:28.388Z,6.30
2023-03-15T15:05:57.970Z,3.20
2023-03-15T15:08:26.967Z,3.90
2023-03-15T15:10:57.017Z,3.40
2023-03-15T15:13:29.212Z,3.60
2023-03-15T15:15:58.015Z,3.80
2023-03-15T15:18:29.620Z,2.40
2023-03-15T15:21:03.064Z,3.80
2023-03-15T15:23:57.528Z,3.20
2023-03-15T15:26:29.465Z,4.20
2023-03-15T15:28:58.263Z,5.10
2023-03-15T15:31:29.076Z,2.60
2023-03-15T15:33:58.023Z,3.30
2023-03-15T15:36:32.382Z,1.70
2023-03-15T15:39:06.436Z,1.70
2023-03-15T15:41:35.731Z,2.70
2023-03-15T15:44:04.636Z,2.70
2023-03-15T15:46:33.433Z,1.60
2023-03-15T15:49:02.128Z,3.40
2023-03-15T15:51:34.512Z,1.50
2023-03-15T15:54:04.590Z,4.70
2023-03-15T15:57:01.192Z,2.90
2023-03-15T15:59:31.037Z,2.30
2023-03-15T16:02:01.758Z,2.70
2023-03-15T16:04:32.750Z,3.50
2023-03-15T16:07:03.720Z,3.60
2023-03-15T16:09:36.250Z,2.70
2023-03-15T16:12:16.581Z,4.70
2023-03-15T16:14:45.340Z,3.90
2023-03-15T16:17:18.664Z,3.30
2023-03-15T16:19:47.702Z,7.60
2023-03-15T16:22:19.087Z,4.50
2023-03-15T16:24:52.442Z,2.70
2023-03-15T16:27:25.163Z,3.70
2023-03-15T16:29:55.982Z,3.70
2023-03-15T16:32:37.197Z,3.80
2023-03-15T16:35:16.523Z,2.40
2023-03-15T16:37:46.301Z,5.90
2023-03-15T16:40:22.263Z,3.90
2023-03-15T16:42:50.926Z,3.80
2023-03-15T16:45:20.216Z,2.60
2023-03-15T16:47:48.961Z,3.10
2023-03-15T16:50:17.842Z,2.60
2023-03-15T16:52:49.676Z,7.30
2023-03-15T16:55:24.336Z,6.50
2023-03-15T16:57:53.157Z,6.20
2023-03-15T17:00:22.600Z,4.50
2023-03-15T17:02:53.132Z,3.10
2023-03-15T17:05:24.368Z,8.50
2023-03-15T17:07:54.792Z,6.50
2023-03-15T17:10:27.552Z,6.00
2023-03-15T17:12:59.319Z,7.20
2023-03-15T17:15:29.230Z,4.00
2023-03-15T17:17:58.148Z,7.10
2023-03-15T17:20:31.044Z,7.60
2023-03-15T17:23:04.887Z,8.40
2023-03-15T17:25:34.378Z,14.40
2023-03-15T17:28:04.799Z,27.80
2023-03-15T17:30:36.485Z,38.30
2023-03-15T17:33:05.930Z,40.90
2023-03-15T17:35:38.425Z,52.90
2023-03-15T17:38:15.601Z,59.00
2023-03-15T17:40:45.150Z,58.40
2023-03-15T17:43:16.033Z,79.00
2023-03-15T17:45:45.190Z,76.80
2023-03-15T17:48:13.909Z,91.00
2023-03-15T17:50:44.452Z,89.20
2023-03-15T17:53:16.858Z,86.60
2023-03-15T17:55:48.078Z,58.10
2023-03-15T17:58:20.115Z,38.80
2023-03-15T18:00:56.482Z,48.90
2023-03-15T18:03:25.995Z,54.80
2023-03-15T18:05:54.940Z,54.20
2023-03-15T18:08:24.897Z,65.50
2023-03-15T18:10:54.334Z,66.10
2023-03-15T18:13:24.043Z,67.10
2023-03-15T18:15:53.146Z,64.40
2023-03-15T18:18:21.916Z,84.70
2023-03-15T18:20:50.646Z,58.10
2023-03-15T18:23:20.032Z,20.70
2023-03-15T18:25:48.852Z,18.30
2023-03-15T18:28:17.588Z,43.70
2023-03-15T18:30:46.499Z,40.60
2023-03-15T18:33:15.999Z,45.50
2023-03-15T18:35:44.782Z,38.80
2023-03-15T18:38:13.560Z,36.90
2023-03-15T18:40:42.675Z,32.10
2023-03-15T18:43:14.229Z,21.00
2023-03-15T18:45:43.387Z,20.40
2023-03-15T18:48:12.237Z,33.20
2023-03-15T18:50:41.040Z,28.50
2023-03-15T18:53:11.766Z,45.50
2023-03-15T18:55:40.822Z,66.70
2023-03-15T18:58:12.923Z,60.00
2023-03-15T19:00:42.020Z,67.00
2023-03-15T19:03:11.421Z,91.10
2023-03-15T19:05:40.240Z,81.90
2023-03-15T19:08:09.077Z,71.40
2023-03-15T19:10:37.748Z,62.60
2023-03-15T19:13:06.467Z,70.60
2023-03-15T19:15:35.376Z,62.40
2023-03-15T19:18:04.120Z,65.20
2023-03-15T19:20:34.889Z,78.10
2023-03-15T19:23:03.667Z,84.80
2023-03-15T19:25:32.328Z,91.70
2023-03-15T19:28:01.071Z,89.50
2023-03-15T19:30:30.959Z,95.30
2023-03-15T19:33:01.073Z,93.20
2023-03-15T19:35:31.853Z,99.10
2023-03-15T19:38:01.638Z,100.20
2023-03-15T19:40:30.542Z,82.70
2023-03-15T19:42:59.361Z,56.30
2023-03-15T19:45:28.448Z,29.20
2023-03-15T19:47:57.364Z,48.10
2023-03-15T19:50:30.919Z,42.80
2023-03-15T19:53:00.400Z,45.90
2023-03-15T19:55:31.581Z,53.10
2023-03-15T19:58:00.615Z,58.80
2023-03-15T20:00:29.381Z,48.90
2023-03-15T20:02:58.248Z,36.40
2023-03-15T20:05:27.136Z,29.00
2023-03-15T20:07:56.045Z,33.60
2023-03-15T20:10:24.762Z,38.20
2023-03-15T20:12:59.092Z,40.40
2023-03-15T20:15:35.823Z,40.00
2023-03-15T20:18:08.112Z,31.80
2023-03-15T20:20:36.838Z,36.00
2023-03-15T20:23:05.531Z,37.70
2023-03-15T20:25:34.551Z,36.80
2023-03-15T20:28:04.276Z,27.50
2023-03-15T20:30:32.987Z,29.20
2023-03-15T20:33:01.751Z,26.70
2023-03-15T20:35:30.835Z,20.50
2023-03-15T20:38:06.648Z,29.00
2023-03-15T20:40:39.032Z,24.00
2023-03-15T20:43:08.028Z,34.60
2023-03-15T20:45:36.719Z,42.40
2023-03-15T20:48:06.054Z,42.60
2023-03-15T20:50:34.737Z,36.30
2023-03-15T20:53:05.191Z,38.90
2023-03-15T20:55:33.928Z,43.70
2023-03-15T20:58:02.587Z,65.00
2023-03-15T21:00:31.938Z,65.20
2023-03-15T21:03:15.208Z,63.60
2023-03-15T21:05:50.977Z,62.70
2023-03-15T21:08:19.609Z,65.90
2023-03-15T21:10:48.321Z,63.70
2023-03-15T21:13:17.423Z,58.30
2023-03-15T21:15:46.868Z,67.20
2023-03-15T21:18:17.657Z,57.90
2023-03-15T21:20:46.386Z,63.20
2023-03-15T21:23:15.076Z,61.70
2023-03-15T21:25:43.800Z,80.70
2023-03-15T21:28:12.472Z,94.40
2023-03-15T21:30:41.157Z,98.60
2023-03-15T21:33:09.972Z,103.00
2023-03-15T21:35:38.813Z,108.60
2023-03-15T21:38:07.521Z,71.50
2023-03-15T21:40:36.253Z,72.20
2023-03-15T21:43:04.947Z,63.00
2023-03-15T21:45:33.822Z,65.90
2023-03-15T21:48:03.375Z,67.70
2023-03-15T21:50:32.205Z,59.60
2023-03-15T21:53:01.793Z,70.90
2023-03-15T21:55:33.773Z,108.30
2023-03-15T21:58:04.686Z,100.30
2023-03-15T22:00:33.454Z,120.60
2023-03-15T22:03:02.134Z,187.00
2023-03-15T22:05:33.149Z,211.70
2023-03-15T22:08:02.419Z,194.70
2023-03-15T22:10:31.203Z,158.70
2023-03-15T22:13:00.001Z,119.60
2023-03-15T22:15:28.778Z,99.80
2023-03-15T22:17:57.445Z,94.10
2023-03-15T22:20:26.570Z,87.00
2023-03-15T22:22:55.514Z,63.70
2023-03-15T22:25:24.252Z,58.10
2023-03-15T22:27:52.944Z,52.60
2023-03-15T22:30:21.877Z,46.80
2023-03-15T22:32:50.775Z,39.50
2023-03-15T22:35:19.550Z,36.30
2023-03-15T22:37:49.348Z,35.40
2023-03-15T22:40:18.779Z,28.60
2023-03-15T22:42:49.658Z,28.20
2023-03-15T22:45:21.526Z,23.70
2023-03-15T22:47:50.367Z,23.00
2023-03-15T22:50:19.079Z,22.90
2023-03-15T22:52:48.390Z,25.60
2023-03-15T22:55:19.190Z,22.70
2023-03-15T22:57:49.044Z,21.10
2023-03-15T23:00:22.219Z,23.70
2023-03-15T23:02:51.257Z,22.30
2023-03-15T23:05:20.029Z,21.20
2023-03-15T23:07:48.816Z,19.30
2023-03-15T23:10:17.523Z,19.20
2023-03-15T23:12:46.232Z,21.70
2023-03-15T23:15:15.637Z,23.30
2023-03-15T23:17:46.825Z,21.50
2023-03-15T23:20:17.868Z,21.10
2023-03-15T23:22:47.917Z,22.00
2023-03-15T23:25:20.391Z,20.50
2023-03-15T23:27:50.787Z,22.30
2023-03-15T23:30:19.608Z,22.70
2023-03-15T23:32:50.998Z,19.90
2023-03-15T23:35:19.948Z,23.30
2023-03-15T23:37:50.039Z,22.90
2023-03-15T23:40:20.431Z,20.90
2023-03-15T23:42:58.861Z,20.00
2023-03-15T23:45:30.156Z,21.60
2023-03-15T23:47:58.989Z,19.60
2023-03-15T23:50:28.579Z,15.60
2023-03-15T23:52:57.594Z,19.90
2023-03-15T23:55:26.348Z,18.80
2023-03-15T23:57:55.043Z,16.50
